Port Alfred, South Africa
Current Conditions -  °F | °C
As of 7:22 PM on Wednesday 26 Nov 2014 (Local Time) from FAEL Reporting Station
Light Rain Light Rain  
Wind Chill: 68°   Ceiling: 1800
Heat Index: 68°   Visibility: 6mi
Dew Point: 66°   Wind: 18mph
Humidity: 94%   Direction: 50°NE
Pressure: 29.83"   Gusts: 30mph
Location:  33.6°S, 26.88°E
Report Text: FAEL 261722Z 05016G26KT 9999 -RA FEW012 BKN018 20/19 Q1010 RETSRA
Loading
Personal Weather Stations






























Interactive Weather Map New forecast layout! Learn more

10-Day Weather Forecast

Advertisements
Track Severe Weather on mobile